createdAt,value
2017-11-08T00:00:11.106Z,36.33
2017-11-08T00:02:38.618Z,39.07
2017-11-08T00:05:06.106Z,35.20
2017-11-08T00:07:33.622Z,41.40
2017-11-08T00:10:01.878Z,41.17
2017-11-08T00:12:29.394Z,39.13
2017-11-08T00:14:56.882Z,33.70
2017-11-08T00:17:24.370Z,38.60
2017-11-08T00:19:52.647Z,40.07
2017-11-08T00:22:20.902Z,36.67
2017-11-08T00:24:48.415Z,48.33
2017-11-08T00:27:15.903Z,38.97
2017-11-08T00:29:43.414Z,39.33
2017-11-08T00:32:10.907Z,35.53
2017-11-08T00:34:38.419Z,40.47
2017-11-08T00:37:06.672Z,38.67
2017-11-08T00:39:34.172Z,38.80
2017-11-08T00:42:01.682Z,39.97
2017-11-08T00:44:29.173Z,39.00
2017-11-08T00:46:57.449Z,38.13
2017-11-08T00:49:24.939Z,39.30
2017-11-08T00:51:52.462Z,38.77
2017-11-08T00:54:20.714Z,41.07
2017-11-08T00:56:48.205Z,42.30
2017-11-08T00:59:15.715Z,41.03
2017-11-08T01:01:43.209Z,42.57
2017-11-08T01:04:11.487Z,38.60
2017-11-08T01:06:38.978Z,43.30
2017-11-08T01:09:06.494Z,42.93
2017-11-08T01:11:34.746Z,46.00
2017-11-08T01:14:02.234Z,41.67
2017-11-08T01:16:30.511Z,42.27
2017-11-08T01:18:58.762Z,38.97
2017-11-08T01:21:26.266Z,41.70
2017-11-08T01:23:53.754Z,42.40
2017-11-08T01:26:21.267Z,37.27
2017-11-08T01:28:49.519Z,41.63
2017-11-08T01:31:17.007Z,38.47
2017-11-08T01:33:44.518Z,45.07
2017-11-08T01:38:55.386Z,42.17
2017-11-08T01:41:24.553Z,38.90
2017-11-08T01:43:54.949Z,45.03
2017-11-08T01:46:22.443Z,48.77
2017-11-08T01:48:49.955Z,45.10
2017-11-08T01:51:17.447Z,42.70
2017-11-08T01:53:44.959Z,47.83
2017-11-08T01:56:12.454Z,43.40
2017-11-08T01:58:39.976Z,42.87
2017-11-08T02:01:07.465Z,44.27
2017-11-08T02:03:34.974Z,41.20
2017-11-08T02:06:02.463Z,43.80
2017-11-08T02:08:29.975Z,42.07
2017-11-08T02:10:58.226Z,41.00
2017-11-08T02:13:25.734Z,41.43
2017-11-08T02:15:59.806Z,42.93
2017-11-08T02:18:27.323Z,41.93
2017-11-08T02:20:54.817Z,48.37
2017-11-08T02:23:22.334Z,39.73
2017-11-08T02:25:49.822Z,44.30
2017-11-08T02:28:18.252Z,40.50
2017-11-08T02:30:46.506Z,43.63
2017-11-08T02:33:14.846Z,48.40
2017-11-08T02:35:42.335Z,40.60
2017-11-08T02:38:09.852Z,42.07
2017-11-08T02:40:37.341Z,44.47
2017-11-08T02:43:04.864Z,41.93
2017-11-08T02:45:35.194Z,40.87
2017-11-08T02:48:02.702Z,43.07
2017-11-08T02:50:30.964Z,43.03
2017-11-08T02:52:58.474Z,47.97
2017-11-08T02:55:25.966Z,43.53
2017-11-08T02:57:53.478Z,44.43
2017-11-08T03:00:20.974Z,47.47
2017-11-08T03:02:51.298Z,42.77
2017-11-08T03:05:18.786Z,44.00
2017-11-08T03:07:46.299Z,41.47
2017-11-08T03:10:13.786Z,49.87
2017-11-08T03:12:41.303Z,46.77
2017-11-08T03:15:08.794Z,43.93
2017-11-08T03:17:36.303Z,41.43
2017-11-08T03:20:04.562Z,42.57
2017-11-08T03:22:32.838Z,47.50
2017-11-08T03:25:01.103Z,47.20
2017-11-08T03:27:28.615Z,47.40
2017-11-08T03:29:56.105Z,46.53
2017-11-08T03:32:23.614Z,45.30
2017-11-08T03:34:51.102Z,45.47
2017-11-08T03:37:18.614Z,45.93
2017-11-08T03:39:46.873Z,46.40
2017-11-08T03:42:14.386Z,43.90
2017-11-08T03:44:41.874Z,48.80
2017-11-08T03:47:09.394Z,49.60
2017-11-08T03:49:36.889Z,46.63
2017-11-08T03:52:04.402Z,46.70
2017-11-08T03:54:31.937Z,44.20
2017-11-08T03:57:00.211Z,50.70
2017-11-08T03:59:28.462Z,53.50
2017-11-08T04:01:55.950Z,44.50
2017-11-08T04:04:24.226Z,46.17
2017-11-08T04:06:51.722Z,51.13
2017-11-08T04:09:19.231Z,45.70
2017-11-08T04:11:46.718Z,46.47
2017-11-08T04:14:14.227Z,47.10
2017-11-08T04:16:41.714Z,46.07
2017-11-08T04:19:09.995Z,46.77
2017-11-08T04:21:38.286Z,49.57
2017-11-08T04:24:05.793Z,47.63
2017-11-08T04:26:33.278Z,50.40
2017-11-08T04:29:01.552Z,49.03
2017-11-08T04:31:29.066Z,50.93
2017-11-08T04:33:56.577Z,46.30
2017-11-08T04:36:24.830Z,47.70
2017-11-08T04:38:52.346Z,46.07
2017-11-08T04:41:19.838Z,48.50
2017-11-08T04:43:47.346Z,50.97
2017-11-08T04:46:14.834Z,49.13
2017-11-08T04:48:42.346Z,47.10
2017-11-08T04:51:10.602Z,50.77
2017-11-08T04:53:38.113Z,52.10
2017-11-08T04:56:05.606Z,51.63
2017-11-08T04:58:33.114Z,46.13
2017-11-08T05:01:00.602Z,48.87
2017-11-08T05:03:28.110Z,46.93
2017-11-08T05:05:56.361Z,46.00
2017-11-08T05:08:23.891Z,50.20
2017-11-08T05:10:51.382Z,48.50
2017-11-08T05:13:18.890Z,53.50
2017-11-08T05:15:46.390Z,49.50
2017-11-08T05:18:13.905Z,46.40
2017-11-08T05:20:41.414Z,51.53
2017-11-08T05:23:08.926Z,49.33
2017-11-08T05:25:36.414Z,47.87
2017-11-08T05:28:03.922Z,48.47
2017-11-08T05:30:32.173Z,51.77
2017-11-08T05:32:59.686Z,53.17
2017-11-08T05:35:27.174Z,50.27
2017-11-08T05:37:54.684Z,54.03
2017-11-08T05:40:22.174Z,52.57
2017-11-08T05:42:49.687Z,50.00
2017-11-08T05:45:17.190Z,50.43
2017-11-08T05:47:44.698Z,52.07
2017-11-08T05:50:12.985Z,53.80
2017-11-08T05:52:40.710Z,52.67
2017-11-08T05:55:08.203Z,50.73
2017-11-08T05:57:35.810Z,53.77
2017-11-08T06:00:03.304Z,54.83
2017-11-08T06:02:30.819Z,51.37
2017-11-08T06:04:58.310Z,56.83
2017-11-08T06:07:25.818Z,53.60
2017-11-08T06:09:53.313Z,56.83
2017-11-08T06:12:20.826Z,53.30
2017-11-08T06:14:48.314Z,55.00
2017-11-08T06:17:15.826Z,55.97
2017-11-08T06:19:43.320Z,49.93
2017-11-08T06:22:10.834Z,51.30
2017-11-08T06:24:39.094Z,56.63
2017-11-08T06:27:06.606Z,56.80
2017-11-08T06:29:34.090Z,62.97
2017-11-08T06:32:02.451Z,58.77
2017-11-08T06:34:29.939Z,57.53
2017-11-08T06:36:57.450Z,54.20
2017-11-08T06:39:24.938Z,57.83
2017-11-08T06:41:52.442Z,57.43
2017-11-08T06:44:20.706Z,54.60
2017-11-08T06:46:48.219Z,60.20
2017-11-08T06:49:15.714Z,56.73
2017-11-08T06:51:46.988Z,54.23
2017-11-08T06:54:14.483Z,61.53
2017-11-08T06:56:42.917Z,54.80
2017-11-08T06:59:11.170Z,58.70
2017-11-08T07:01:38.681Z,57.10
2017-11-08T07:04:06.178Z,56.97
2017-11-08T07:06:36.602Z,59.00
2017-11-08T07:09:04.093Z,57.70
2017-11-08T07:11:32.393Z,56.20
2017-11-08T07:13:59.882Z,64.00
2017-11-08T07:16:27.403Z,57.77
2017-11-08T07:18:54.894Z,60.60
2017-11-08T07:21:22.406Z,58.60
2017-11-08T07:23:50.661Z,59.20
2017-11-08T07:26:18.170Z,60.80
2017-11-08T07:28:45.655Z,60.90
2017-11-08T07:31:13.166Z,56.97
2017-11-08T07:33:40.658Z,61.97
2017-11-08T07:36:08.170Z,60.43
2017-11-08T07:38:36.422Z,58.13
2017-11-08T07:41:03.937Z,57.63
2017-11-08T07:43:31.427Z,60.43
2017-11-08T07:45:58.947Z,59.50
2017-11-08T07:48:26.434Z,58.03
2017-11-08T07:50:53.946Z,61.63
2017-11-08T07:53:28.781Z,59.47
2017-11-08T07:56:01.849Z,56.93
2017-11-08T07:58:29.380Z,65.37
2017-11-08T08:00:56.939Z,61.67
2017-11-08T08:03:24.431Z,63.43
2017-11-08T08:05:52.681Z,52.63
2017-11-08T08:08:20.195Z,56.37
2017-11-08T08:10:47.683Z,62.90
2017-11-08T08:13:15.195Z,60.67
2017-11-08T08:15:43.446Z,57.73
2017-11-08T08:18:10.953Z,61.70
2017-11-08T08:20:38.479Z,61.77
2017-11-08T08:23:06.750Z,59.93
2017-11-08T08:25:35.002Z,58.23
2017-11-08T08:28:02.541Z,63.07
2017-11-08T08:30:30.031Z,57.53
2017-11-08T08:32:57.557Z,63.07
2017-11-08T08:35:25.051Z,64.63
2017-11-08T08:37:52.563Z,66.60
2017-11-08T08:40:20.079Z,68.60
2017-11-08T08:42:48.355Z,64.53
2017-11-08T08:45:16.617Z,65.17
2017-11-08T08:47:44.130Z,68.17
2017-11-08T08:50:11.619Z,63.27
2017-11-08T08:52:39.131Z,61.47
2017-11-08T08:55:06.623Z,60.43
2017-11-08T08:57:34.135Z,64.77
2017-11-08T09:00:01.618Z,64.40
2017-11-08T09:02:31.921Z,60.93
2017-11-08T09:04:59.406Z,63.90
2017-11-08T09:07:26.939Z,58.23
2017-11-08T09:09:54.430Z,63.93
2017-11-08T09:12:21.940Z,65.13
2017-11-08T09:14:50.199Z,63.23
2017-11-08T09:17:17.719Z,62.30
2017-11-08T09:19:45.211Z,60.50
2017-11-08T09:22:12.722Z,66.60
2017-11-08T09:24:45.715Z,64.97
2017-11-08T09:27:13.230Z,62.77
2017-11-08T09:29:40.726Z,62.83
2017-11-08T09:32:09.898Z,62.40
2017-11-08T09:34:43.823Z,68.07
2017-11-08T09:37:11.334Z,61.10
2017-11-08T09:39:38.826Z,64.10
2017-11-08T09:42:20.742Z,63.13
2017-11-08T09:44:48.238Z,71.57
2017-11-08T09:47:18.553Z,66.37
2017-11-08T09:49:46.038Z,63.33
2017-11-08T09:52:13.551Z,63.30
2017-11-08T09:54:41.038Z,72.03
2017-11-08T09:57:10.464Z,64.03
2017-11-08T09:59:38.720Z,66.47
2017-11-08T10:02:06.235Z,63.47
2017-11-08T10:04:33.729Z,65.23
2017-11-08T10:07:01.241Z,65.70
2017-11-08T10:09:29.658Z,62.63
2017-11-08T10:12:01.973Z,61.67
2017-11-08T10:14:30.260Z,68.67
2017-11-08T10:16:58.592Z,75.23
2017-11-08T10:19:26.848Z,64.17
2017-11-08T10:21:54.362Z,67.40
2017-11-08T10:24:22.627Z,78.17
2017-11-08T10:26:50.924Z,81.43
2017-11-08T10:29:18.414Z,79.33
2017-11-08T10:31:45.926Z,84.30
2017-11-08T10:34:14.194Z,71.30
2017-11-08T10:36:41.711Z,75.00
2017-11-08T10:39:09.199Z,74.97
2017-11-08T10:41:36.721Z,88.63
2017-11-08T10:44:04.179Z,90.93
2017-11-08T10:46:31.707Z,81.50
2017-11-08T10:49:05.689Z,83.10
2017-11-08T10:51:33.204Z,90.77
2017-11-08T10:54:00.694Z,76.50
2017-11-08T10:56:28.971Z,93.40
2017-11-08T10:59:01.163Z,76.37
2017-11-08T11:01:28.722Z,82.00
2017-11-08T11:03:56.261Z,77.43
2017-11-08T11:06:23.778Z,77.10
2017-11-08T11:08:51.274Z,81.77
2017-11-08T11:11:19.556Z,73.53
2017-11-08T11:13:47.803Z,72.60
2017-11-08T11:16:15.319Z,78.90
2017-11-08T11:18:42.820Z,70.00
2017-11-08T11:21:10.340Z,72.10
2017-11-08T11:23:41.787Z,70.77
2017-11-08T11:26:09.299Z,82.63
2017-11-08T11:28:37.559Z,73.30
2017-11-08T11:31:05.075Z,72.20
2017-11-08T11:33:32.571Z,73.00
2017-11-08T11:36:00.093Z,75.57
2017-11-08T11:38:28.512Z,72.30
2017-11-08T11:40:56.043Z,82.30
2017-11-08T11:43:23.531Z,82.53
2017-11-08T11:45:51.048Z,77.43
2017-11-08T11:48:18.541Z,73.30
2017-11-08T11:50:46.088Z,75.00
2017-11-08T11:53:13.579Z,68.13
2017-11-08T11:55:41.108Z,75.80
2017-11-08T11:58:08.604Z,73.87
2017-11-08T12:00:36.174Z,70.83
2017-11-08T12:03:04.435Z,74.13
2017-11-08T12:05:46.643Z,76.93
2017-11-08T12:08:14.140Z,74.33
2017-11-08T12:10:41.659Z,76.30
2017-11-08T12:13:09.161Z,76.13
2017-11-08T12:15:36.684Z,75.60
2017-11-08T12:18:04.179Z,74.93
2017-11-08T12:20:31.695Z,70.77
2017-11-08T12:22:59.956Z,76.37
2017-11-08T12:25:27.467Z,77.80
2017-11-08T12:27:54.958Z,78.00
2017-11-08T12:30:22.484Z,75.87
2017-11-08T12:32:49.976Z,78.53
2017-11-08T12:35:17.508Z,76.73
2017-11-08T12:37:45.008Z,72.83
2017-11-08T12:40:18.195Z,79.30
2017-11-08T12:42:52.274Z,78.37
2017-11-08T12:45:19.787Z,80.20
2017-11-08T12:47:47.287Z,80.57
2017-11-08T12:50:16.782Z,83.73
2017-11-08T12:55:31.911Z,79.17
2017-11-08T12:58:02.133Z,81.53
2017-11-08T13:00:32.621Z,81.60
2017-11-08T13:03:03.604Z,74.60
2017-11-08T13:05:36.392Z,77.27
2017-11-08T13:08:07.321Z,75.70
2017-11-08T13:10:42.769Z,72.73
2017-11-08T13:13:13.015Z,81.20
2017-11-08T13:15:41.882Z,84.67
2017-11-08T13:18:09.574Z,85.53
2017-11-08T13:20:38.828Z,80.10
2017-11-08T13:23:10.094Z,74.80
2017-11-08T13:25:39.892Z,74.43
2017-11-08T13:28:07.617Z,78.90
2017-11-08T13:30:37.769Z,79.47
2017-11-08T13:33:08.884Z,76.23
2017-11-08T13:35:50.535Z,70.37
2017-11-08T13:38:24.204Z,69.40
2017-11-08T13:40:53.891Z,74.67
2017-11-08T13:43:29.444Z,75.60
2017-11-08T13:45:57.397Z,79.40
2017-11-08T13:48:27.549Z,72.20
2017-11-08T13:51:00.025Z,74.50
2017-11-08T13:53:29.690Z,76.30
2017-11-08T13:56:03.204Z,78.20
2017-11-08T13:58:33.292Z,72.33
2017-11-08T14:01:01.206Z,68.00
2017-11-08T14:03:30.168Z,68.10
2017-11-08T14:06:00.577Z,76.63
2017-11-08T14:08:32.878Z,80.40
2017-11-08T14:11:03.166Z,76.83
2017-11-08T14:13:33.374Z,74.00
2017-11-08T14:16:17.899Z,82.10
2017-11-08T14:18:50.297Z,74.13
2017-11-08T14:21:22.733Z,76.17
2017-11-08T14:23:52.702Z,72.30
2017-11-08T14:26:40.161Z,69.90
2017-11-08T14:29:12.345Z,67.20
2017-11-08T14:31:42.237Z,67.87
2017-11-08T14:34:16.600Z,70.30
2017-11-08T14:36:53.123Z,65.37
2017-11-08T14:39:25.905Z,72.23
2017-11-08T14:42:01.191Z,75.70
2017-11-08T14:44:33.365Z,84.43
2017-11-08T14:47:01.064Z,76.83
2017-11-08T14:49:28.631Z,74.10
2017-11-08T14:51:59.909Z,75.93
2017-11-08T14:54:28.351Z,77.40
2017-11-08T14:56:56.055Z,75.93
2017-11-08T14:59:28.075Z,70.53
2017-11-08T15:02:06.947Z,76.40
2017-11-08T15:04:41.785Z,75.83
2017-11-08T15:07:17.024Z,74.00
2017-11-08T15:09:52.406Z,79.87
2017-11-08T15:12:30.265Z,81.43
2017-11-08T15:15:23.932Z,102.77
2017-11-08T15:18:06.692Z,86.53
2017-11-08T15:23:40.510Z,86.63
2017-11-08T15:26:25.169Z,97.43
2017-11-08T15:29:08.087Z,82.40
2017-11-08T15:31:50.493Z,77.50
2017-11-08T15:34:36.161Z,83.20
2017-11-08T15:37:11.394Z,80.47
2017-11-08T15:39:55.757Z,86.50
2017-11-08T15:42:31.596Z,81.17
2017-11-08T15:45:11.341Z,70.03
2017-11-08T15:47:58.939Z,73.13
2017-11-08T15:50:42.727Z,76.27
2017-11-08T15:53:19.816Z,74.30
2017-11-08T15:55:55.438Z,74.60
2017-11-08T15:58:24.730Z,84.30
2017-11-08T16:00:56.580Z,81.87
2017-11-08T16:03:33.179Z,76.13
2017-11-08T16:06:11.079Z,79.80
2017-11-08T16:08:41.579Z,75.13
2017-11-08T16:11:09.120Z,81.73
2017-11-08T16:13:40.902Z,74.50
2017-11-08T16:16:12.818Z,81.23
2017-11-08T16:18:41.439Z,71.70
2017-11-08T16:21:10.148Z,77.23
2017-11-08T16:23:39.242Z,74.87
2017-11-08T16:26:07.936Z,76.90
2017-11-08T16:28:38.514Z,75.87
2017-11-08T16:31:14.714Z,75.47
2017-11-08T16:33:45.138Z,79.33
2017-11-08T16:36:19.835Z,83.87
2017-11-08T16:38:48.489Z,69.47
2017-11-08T16:41:18.864Z,80.20
2017-11-08T16:43:52.063Z,78.97
2017-11-08T16:46:24.548Z,81.70
2017-11-08T16:48:54.260Z,77.23
2017-11-08T16:51:22.194Z,71.80
2017-11-08T16:53:51.980Z,72.67
2017-11-08T16:56:22.802Z,75.60
2017-11-08T16:58:50.580Z,77.23
2017-11-08T17:01:24.113Z,97.87
2017-11-08T17:03:52.776Z,80.67
2017-11-08T17:06:20.779Z,66.70
2017-11-08T17:08:48.434Z,69.83
2017-11-08T17:11:16.026Z,75.17
2017-11-08T17:13:43.570Z,75.60
2017-11-08T17:16:13.503Z,84.33
2017-11-08T17:18:43.246Z,74.77
2017-11-08T17:21:11.148Z,83.03
2017-11-08T17:23:39.690Z,75.43
2017-11-08T17:26:11.700Z,76.07
2017-11-08T17:28:43.330Z,84.17
2017-11-08T17:31:15.930Z,84.47
2017-11-08T17:33:48.101Z,74.43
2017-11-08T17:36:20.539Z,79.70
2017-11-08T17:38:52.197Z,72.03
2017-11-08T17:41:34.848Z,70.40
2017-11-08T17:44:03.896Z,64.70
2017-11-08T17:46:32.383Z,79.10
2017-11-08T17:49:01.829Z,80.80
2017-11-08T17:51:33.533Z,79.13
2017-11-08T17:54:02.013Z,76.50
2017-11-08T17:56:31.875Z,75.20
2017-11-08T17:59:00.050Z,73.37
2017-11-08T18:01:36.631Z,74.73
2017-11-08T18:04:09.712Z,70.23
2017-11-08T18:06:42.231Z,96.37
2017-11-08T18:09:15.479Z,85.70
2017-11-08T18:11:46.621Z,89.50
2017-11-08T18:14:21.793Z,98.97
2017-11-08T18:16:58.125Z,100.17
2017-11-08T18:19:35.444Z,91.27
2017-11-08T18:22:08.127Z,87.07
2017-11-08T18:24:43.462Z,79.17
2017-11-08T18:27:13.099Z,91.00
2017-11-08T18:29:44.722Z,76.07
2017-11-08T18:32:15.254Z,83.90
2017-11-08T18:34:43.268Z,77.17
2017-11-08T18:37:17.538Z,89.47
2017-11-08T18:39:48.352Z,87.27
2017-11-08T18:42:19.344Z,83.10
2017-11-08T18:44:51.183Z,82.80
2017-11-08T18:47:33.667Z,83.30
2017-11-08T18:50:05.000Z,81.97
2017-11-08T18:52:39.890Z,81.67
2017-11-08T18:55:08.220Z,83.67
2017-11-08T18:57:35.760Z,78.40
2017-11-08T19:00:18.430Z,86.20
2017-11-08T19:02:47.148Z,81.70
2017-11-08T19:05:14.771Z,83.53
2017-11-08T19:07:42.313Z,88.10
2017-11-08T19:10:11.231Z,91.33
2017-11-08T19:12:39.641Z,85.60
2017-11-08T19:15:12.337Z,76.60
2017-11-08T19:17:45.423Z,83.03
2017-11-08T19:20:23.345Z,81.73
2017-11-08T19:22:53.361Z,84.73
2017-11-08T19:25:24.198Z,81.93
2017-11-08T19:27:56.754Z,91.80
2017-11-08T19:30:26.579Z,78.70
2017-11-08T19:32:55.960Z,91.90
2017-11-08T19:35:32.835Z,82.60
2017-11-08T19:38:06.688Z,81.07
2017-11-08T19:40:39.944Z,81.60
2017-11-08T19:43:24.701Z,84.53
2017-11-08T19:46:02.130Z,87.33
2017-11-08T19:48:56.893Z,82.03
2017-11-08T19:51:33.650Z,90.30
2017-11-08T19:54:12.725Z,96.93
2017-11-08T19:56:48.866Z,89.60
2017-11-08T19:59:23.583Z,87.23
2017-11-08T20:02:01.432Z,85.47
2017-11-08T20:04:35.905Z,77.67
2017-11-08T20:09:50.889Z,84.70
2017-11-08T20:12:25.548Z,92.23
2017-11-08T20:15:00.075Z,80.80
2017-11-08T20:17:30.465Z,84.23
2017-11-08T20:20:08.060Z,85.47
2017-11-08T20:22:42.487Z,321.73
2017-11-08T20:25:10.408Z,108.77
2017-11-08T20:27:53.095Z,87.10
2017-11-08T20:30:27.999Z,92.97
2017-11-08T20:33:15.783Z,93.37
2017-11-08T20:35:45.232Z,91.20
2017-11-08T20:38:13.644Z,103.50
2017-11-08T20:43:24.343Z,90.83
2017-11-08T20:45:59.157Z,93.80
2017-11-08T20:48:29.658Z,95.03
2017-11-08T20:50:59.730Z,97.50
2017-11-08T20:53:30.645Z,90.40
2017-11-08T20:55:58.883Z,96.77
2017-11-08T20:58:26.467Z,88.87
2017-11-08T21:00:54.775Z,95.87
2017-11-08T21:03:23.953Z,96.80
2017-11-08T21:05:51.696Z,102.50
2017-11-08T21:08:19.251Z,103.83
2017-11-08T21:10:46.881Z,96.60
2017-11-08T21:13:14.863Z,95.93
2017-11-08T21:15:48.921Z,100.37
2017-11-08T21:18:23.018Z,100.53
2017-11-08T21:20:56.006Z,94.60
2017-11-08T21:23:27.120Z,97.17
2017-11-08T21:25:54.964Z,102.73
2017-11-08T21:28:22.557Z,94.73
2017-11-08T21:31:00.914Z,95.00
2017-11-08T21:33:43.175Z,97.77
2017-11-08T21:36:16.505Z,93.17
2017-11-08T21:38:49.333Z,100.50
2017-11-08T21:41:17.354Z,94.80
2017-11-08T21:43:45.779Z,96.33
2017-11-08T21:46:15.547Z,95.73
2017-11-08T21:48:43.891Z,101.83
2017-11-08T21:51:11.479Z,103.37
2017-11-08T21:53:39.821Z,91.50
2017-11-08T21:56:07.356Z,97.03
2017-11-08T21:58:36.065Z,97.37
2017-11-08T22:01:03.690Z,99.50
2017-11-08T22:03:31.433Z,99.40
2017-11-08T22:05:58.943Z,232.07
2017-11-08T22:08:26.487Z,98.00
2017-11-08T22:10:54.053Z,109.27
2017-11-08T22:13:21.587Z,95.17
2017-11-08T22:16:05.292Z,98.03
2017-11-08T22:18:39.627Z,99.37
2017-11-08T22:21:08.102Z,96.73
2017-11-08T22:23:35.698Z,96.17
2017-11-08T22:26:03.973Z,101.97
2017-11-08T22:28:33.996Z,99.57
2017-11-08T22:31:02.850Z,93.13
2017-11-08T22:33:31.184Z,102.40
2017-11-08T22:35:58.781Z,99.93
2017-11-08T22:38:27.218Z,102.07
2017-11-08T22:40:54.747Z,108.57
2017-11-08T22:43:23.877Z,101.23
2017-11-08T22:45:52.250Z,108.07
2017-11-08T22:48:23.388Z,104.80
2017-11-08T22:50:51.079Z,98.33
2017-11-08T22:53:18.635Z,101.30
2017-11-08T22:55:46.951Z,99.40
2017-11-08T22:58:14.462Z,97.70
2017-11-08T23:00:41.955Z,107.27
2017-11-08T23:03:09.474Z,104.37
2017-11-08T23:05:36.967Z,108.13
2017-11-08T23:08:04.478Z,97.43
2017-11-08T23:10:31.971Z,102.83
2017-11-08T23:13:00.255Z,101.80
2017-11-08T23:15:28.514Z,98.37
2017-11-08T23:17:56.799Z,105.73
2017-11-08T23:20:25.055Z,95.03
2017-11-08T23:22:52.571Z,99.73
2017-11-08T23:25:20.063Z,104.83
2017-11-08T23:27:47.583Z,104.07
2017-11-08T23:30:15.080Z,102.17
2017-11-08T23:32:42.604Z,102.93
2017-11-08T23:35:10.138Z,105.50
2017-11-08T23:37:37.760Z,100.97
2017-11-08T23:40:05.266Z,104.87
2017-11-08T23:42:32.779Z,99.77
2017-11-08T23:45:00.280Z,102.83
2017-11-08T23:47:27.794Z,106.63
2017-11-08T23:49:55.279Z,99.33
2017-11-08T23:55:27.608Z,100.23
2017-11-08T23:58:02.579Z,103.43
